地図

経路データ

SID SEASON NUMBER BASIN SUBBASIN NAME ISO_TIME NATURE LAT LON WMO_WIND WMO_PRES WMO_AGENCY TRACK_TYPE DIST2LAND LANDFALL IFLAG USA_AGENCY USA_ATCF_ID USA_LAT USA_LON USA_RECORD USA_STATUS USA_WIND USA_PRES USA_SSHS USA_R34_NE USA_R34_SE USA_R34_SW USA_R34_NW USA_R50_NE USA_R50_SE USA_R50_SW USA_R50_NW USA_R64_NE USA_R64_SE USA_R64_SW USA_R64_NW USA_POCI USA_ROCI USA_RMW USA_EYE TOKYO_LAT TOKYO_LON TOKYO_GRADE TOKYO_WIND TOKYO_PRES TOKYO_R50_DIR TOKYO_R50_LONG TOKYO_R50_SHORT TOKYO_R30_DIR TOKYO_R30_LONG TOKYO_R30_SHORT TOKYO_LAND CMA_LAT CMA_LON CMA_CAT CMA_WIND CMA_PRES HKO_LAT HKO_LON HKO_CAT HKO_WIND HKO_PRES NEWDELHI_LAT NEWDELHI_LON NEWDELHI_GRADE NEWDELHI_WIND NEWDELHI_PRES NEWDELHI_CI NEWDELHI_DP NEWDELHI_POCI REUNION_LAT REUNION_LON REUNION_TYPE REUNION_WIND REUNION_PRES REUNION_TNUM REUNION_CI REUNION_RMW REUNION_R34_NE REUNION_R34_SE REUNION_R34_SW REUNION_R34_NW REUNION_R50_NE REUNION_R50_SE REUNION_R50_SW REUNION_R50_NW REUNION_R64_NE REUNION_R64_SE REUNION_R64_SW REUNION_R64_NW BOM_LAT BOM_LON BOM_TYPE BOM_WIND BOM_PRES BOM_TNUM BOM_CI BOM_RMW BOM_R34_NE BOM_R34_SE BOM_R34_SW BOM_R34_NW BOM_R50_NE BOM_R50_SE BOM_R50_SW BOM_R50_NW BOM_R64_NE BOM_R64_SE BOM_R64_SW BOM_R64_NW BOM_ROCI BOM_POCI BOM_EYE BOM_POS_METHOD BOM_PRES_METHOD NADI_LAT NADI_LON NADI_CAT NADI_WIND NADI_PRES WELLINGTON_LAT WELLINGTON_LON WELLINGTON_WIND WELLINGTON_PRES DS824_LAT DS824_LON DS824_STAGE DS824_WIND DS824_PRES TD9636_LAT TD9636_LON TD9636_STAGE TD9636_WIND TD9636_PRES TD9635_LAT TD9635_LON TD9635_WIND TD9635_PRES TD9635_ROCI NEUMANN_LAT NEUMANN_LON NEUMANN_CLASS NEUMANN_WIND NEUMANN_PRES MLC_LAT MLC_LON MLC_CLASS MLC_WIND MLC_PRES USA_GUST BOM_GUST BOM_GUST_PER REUNION_GUST REUNION_GUST_PER USA_SEAHGT USA_SEARAD_NE USA_SEARAD_SE USA_SEARAD_SW USA_SEARAD_NW STORM_SPEED STORM_DIR
1928221N12300 1928 43 NA CS NOT_NAMED 1928-08-07 12:00:00 TS 11.5000 -60.3000 30 hurdat_atl main 117 114 O_____________ hurdat_atl AL021928 11.5000 -60.3000 TD 30 -1 11 309
1928221N12300 1928 43 NA CS NOT_NAMED 1928-08-07 15:00:00 TS 11.8501 -60.7498 main 138 134 P_____________ AL021928 11.8501 -60.7498 TD 30 -1 11 308
1928221N12300 1928 43 NA CS NOT_NAMED 1928-08-07 18:00:00 TS 12.2000 -61.2000 30 hurdat_atl main 167 167 O_____________ hurdat_atl AL021928 12.2000 -61.2000 TD 30 -1 11 308
1928221N12300 1928 43 NA CS NOT_NAMED 1928-08-07 21:00:00 TS 12.5499 -61.6501 main 201 201 P_____________ AL021928 12.5499 -61.6501 TD 32 -1 11 309
1928221N12300 1928 43 NA CS NOT_NAMED 1928-08-08 00:00:00 TS 12.9000 -62.1000 35 hurdat_atl main 246 246 O_____________ hurdat_atl AL021928 12.9000 -62.1000 TS 35 0 11 309
1928221N12300 1928 43 NA CS NOT_NAMED 1928-08-08 03:00:00 TS 13.2574 -62.5426 main 291 291 P_____________ AL021928 13.2574 -62.5426 TS 37 0 11 309
1928221N12300 1928 43 NA CS NOT_NAMED 1928-08-08 06:00:00 TS 13.6000 -63.0000 40 hurdat_atl main 324 324 O_____________ hurdat_atl AL021928 13.6000 -63.0000 TS 40 0 11 306
1928221N12300 1928 43 NA CS NOT_NAMED 1928-08-08 09:00:00 TS 13.9224 -63.4925 main 360 360 P_____________ AL021928 13.9224 -63.4925 TS 40 0 11 302
1928221N12300 1928 43 NA CS NOT_NAMED 1928-08-08 12:00:00 TS 14.2000 -64.0000 40 hurdat_atl main 403 403 O_____________ hurdat_atl AL021928 14.2000 -64.0000 TS 40 0 11 297
1928221N12300 1928 43 NA CS NOT_NAMED 1928-08-08 15:00:00 TS 14.4149 -64.5002 main 426 389 P_____________ AL021928 14.4149 -64.5002 TS 42 0 11 292
1928221N12300 1928 43 NA CS NOT_NAMED 1928-08-08 18:00:00 TS 14.6000 -65.0000 45 hurdat_atl main 389 354 O_____________ hurdat_atl AL021928 14.6000 -65.0000 TS 45 0 10 292
1928221N12300 1928 43 NA CS NOT_NAMED 1928-08-08 21:00:00 TS 14.7999 -65.5001 main 354 325 P_____________ AL021928 14.7999 -65.5001 TS 47 0 10 292
1928221N12300 1928 43 NA CS NOT_NAMED 1928-08-09 00:00:00 TS 15.0000 -66.0000 50 hurdat_atl main 325 302 O_____________ hurdat_atl AL021928 15.0000 -66.0000 TS 50 0 10 292
1928221N12300 1928 43 NA CS NOT_NAMED 1928-08-09 03:00:00 TS 15.1999 -66.5001 main 303 279 P_____________ AL021928 15.1999 -66.5001 TS 52 0 10 293
1928221N12300 1928 43 NA CS NOT_NAMED 1928-08-09 06:00:00 TS 15.4000 -67.0000 55 hurdat_atl main 279 258 O_____________ hurdat_atl AL021928 15.4000 -67.0000 TS 55 0 10 293
1928221N12300 1928 43 NA CS NOT_NAMED 1928-08-09 09:00:00 TS 15.5999 -67.5001 main 259 246 P_____________ AL021928 15.5999 -67.5001 TS 57 0 10 293
1928221N12300 1928 43 NA CS NOT_NAMED 1928-08-09 12:00:00 TS 15.8000 -68.0000 60 hurdat_atl main 249 243 O_____________ hurdat_atl AL021928 15.8000 -68.0000 TS 60 0 10 293
1928221N12300 1928 43 NA CS NOT_NAMED 1928-08-09 15:00:00 TS 16.0074 -68.5000 main 246 224 P_____________ AL021928 16.0074 -68.5000 TS 62 0 10 293
1928221N12300 1928 43 NA CS NOT_NAMED 1928-08-09 18:00:00 TS 16.2000 -69.0000 65 hurdat_atl main 224 216 O_____________ hurdat_atl AL021928 16.2000 -69.0000 HU 65 1 10 290
1928221N12300 1928 43 NA CS NOT_NAMED 1928-08-09 21:00:00 TS 16.3499 -69.5002 main 225 191 P_____________ AL021928 16.3499 -69.5002 HU 67 1 10 287
1928221N12300 1928 43 NA CS NOT_NAMED 1928-08-10 00:00:00 TS 16.5000 -70.0000 70 hurdat_atl main 191 138 O_____________ hurdat_atl AL021928 16.5000 -70.0000 HU 70 1 10 290
1928221N12300 1928 43 NA CS NOT_NAMED 1928-08-10 03:00:00 TS 16.6924 -70.5000 main 138 89 P_____________ AL021928 16.6924 -70.5000 HU 72 1 10 293
1928221N12300 1928 43 NA CS NOT_NAMED 1928-08-10 06:00:00 TS 16.9000 -71.0000 75 hurdat_atl main 89 55 O_____________ hurdat_atl AL021928 16.9000 -71.0000 HU 75 1 10 293
1928221N12300 1928 43 NA CS NOT_NAMED 1928-08-10 09:00:00 TS 17.0999 -71.5001 main 56 49 P_____________ AL021928 17.0999 -71.5001 HU 77 1 10 293
1928221N12300 1928 43 NA CS NOT_NAMED 1928-08-10 12:00:00 TS 17.3000 -72.0000 80 hurdat_atl main 70 69 O_____________ hurdat_atl AL021928 17.3000 -72.0000 HU 80 1 10 293
1928221N12300 1928 43 NA CS NOT_NAMED 1928-08-10 15:00:00 TS 17.5074 -72.5075 main 74 45 P_____________ AL021928 17.5074 -72.5075 HU 80 1 10 293
1928221N12300 1928 43 NA CS NOT_NAMED 1928-08-10 18:00:00 TS 17.7000 -73.0000 80 hurdat_atl main 49 33 O_____________ hurdat_atl AL021928 17.7000 -73.0000 HU 80 1 10 292
1928221N12300 1928 43 NA CS NOT_NAMED 1928-08-10 21:00:00 TS 17.8648 -73.4501 main 33 0 P_____________ AL021928 17.8648 -73.4501 HU 80 1 9 289
1928221N12300 1928 43 NA CS NOT_NAMED 1928-08-11 00:00:00 TS 18.0000 -73.9000 80 hurdat_atl main 0 0 O_____________ hurdat_atl AL021928 18.0000 -73.9000 HU 80 1 9 284
1928221N12300 1928 43 NA CS NOT_NAMED 1928-08-11 03:00:00 TS 18.0924 -74.3927 main 22 22 P_____________ AL021928 18.0924 -74.3927 HU 77 1 10 282
1928221N12300 1928 43 NA CS NOT_NAMED 1928-08-11 06:00:00 TS 18.2000 -74.9000 75 hurdat_atl main 47 47 O_____________ hurdat_atl AL021928 18.2000 -74.9000 HU 75 1 10 287
1928221N12300 1928 43 NA CS NOT_NAMED 1928-08-11 09:00:00 TS 18.3774 -75.4001 main 94 61 P_____________ AL021928 18.3774 -75.4001 HU 72 1 10 293
1928221N12300 1928 43 NA CS NOT_NAMED 1928-08-11 12:00:00 TS 18.6000 -75.9000 70 hurdat_atl main 61 54 O_____________ hurdat_atl AL021928 18.6000 -75.9000 HU 70 1 10 296
1928221N12300 1928 43 NA CS NOT_NAMED 1928-08-11 15:00:00 TS 18.8347 -76.3852 main 67 64 P_____________ AL021928 18.8347 -76.3852 HU 67 1 11 298
1928221N12300 1928 43 NA CS NOT_NAMED 1928-08-11 18:00:00 TS 19.1000 -76.9000 65 hurdat_atl main 78 49 O_____________ hurdat_atl AL021928 19.1000 -76.9000 HU 65 1 12 298
1928221N12300 1928 43 NA CS NOT_NAMED 1928-08-11 21:00:00 TS 19.3850 -77.4926 main 49 24 P_____________ AL021928 19.3850 -77.4926 HU 62 0 13 298
1928221N12300 1928 43 NA CS NOT_NAMED 1928-08-12 00:00:00 TS 19.7000 -78.1000 60 hurdat_atl main 43 43 O_____________ hurdat_atl AL021928 19.7000 -78.1000 TS 60 0 13 299
1928221N12300 1928 43 NA CS NOT_NAMED 1928-08-12 03:00:00 TS 20.0124 -78.6803 main 106 91 P_____________ AL021928 20.0125 -78.6803 TS 57 0 13 304
1928221N12300 1928 43 NA CS NOT_NAMED 1928-08-12 06:00:00 TS 20.4000 -79.2000 55 hurdat_atl main 99 78 O_____________ hurdat_atl AL021928 20.4000 -79.2000 TS 55 0 13 315
1928221N12300 1928 43 NA CS NOT_NAMED 1928-08-12 09:00:00 TS 20.9048 -79.6377 main 78 22 P_____________ AL021928 20.9048 -79.6377 TS 52 0 13 326
1928221N12300 1928 43 NA CS NOT_NAMED 1928-08-12 12:00:00 TS 21.5000 -80.0000 50 hurdat_atl main 22 0 O_____________ hurdat_atl AL021928 21.5000 -80.0000 TS 50 0 14 332
1928221N12300 1928 43 NA NA NOT_NAMED 1928-08-12 15:00:00 TS 22.1274 -80.3228 main 0 0 P_____________ AL021928 22.1274 -80.3228 TS 50 0 14 337
1928221N12300 1928 43 NA NA NOT_NAMED 1928-08-12 18:00:00 TS 22.8000 -80.6000 50 hurdat_atl main 0 0 O_____________ hurdat_atl AL021928 22.8000 -80.6000 TS 50 0 15 341
1928221N12300 1928 43 NA NA NOT_NAMED 1928-08-12 21:00:00 TS 23.5340 -80.8468 main 55 55 P_____________ AL021928 23.5340 -80.8468 TS 55 0 15 342
1928221N12300 1928 43 NA NA NOT_NAMED 1928-08-13 00:00:00 TS 24.2000 -81.1000 60 hurdat_atl main 100 53 O_____________ hurdat_atl AL021928 24.2000 -81.1000 TS 60 0 13 337
1928221N12300 1928 43 NA NA NOT_NAMED 1928-08-13 03:00:00 TS 24.7000 -81.4000 60 hurdat_atl main 53 32 O_____________ hurdat_atl AL021928 24.7000 -81.4000 L TS 60 0 11 336
1928221N12300 1928 43 NA GM NOT_NAMED 1928-08-13 06:00:00 TS 25.2000 -81.6000 60 hurdat_atl main 40 34 O_____________ hurdat_atl AL021928 25.2000 -81.6000 TS 60 0 10 335
1928221N12300 1928 43 NA GM NOT_NAMED 1928-08-13 09:00:00 TS 25.6137 -81.8797 main 39 29 P_____________ AL021928 25.6137 -81.8797 TS 57 0 10 326
1928221N12300 1928 43 NA GM NOT_NAMED 1928-08-13 12:00:00 TS 26.0000 -82.2000 55 hurdat_atl main 41 41 O_____________ hurdat_atl AL021928 26.0000 -82.2000 TS 55 0 10 326
1928221N12300 1928 43 NA GM NOT_NAMED 1928-08-13 15:00:00 TS 26.4424 -82.5002 main 45 37 P_____________ AL021928 26.4424 -82.5002 TS 55 0 11 329
1928221N12300 1928 43 NA GM NOT_NAMED 1928-08-13 18:00:00 TS 26.9000 -82.8000 55 hurdat_atl main 44 37 O_____________ hurdat_atl AL021928 26.9000 -82.8000 TS 55 0 11 329
1928221N12300 1928 43 NA GM NOT_NAMED 1928-08-13 21:00:00 TS 27.3499 -83.1002 main 49 45 P_____________ AL021928 27.3499 -83.1002 TS 52 0 10 329
1928221N12300 1928 43 NA GM NOT_NAMED 1928-08-14 00:00:00 TS 27.8000 -83.4000 50 hurdat_atl main 50 50 O_____________ hurdat_atl AL021928 27.8000 -83.4000 TS 50 0 10 329
1928221N12300 1928 43 NA GM NOT_NAMED 1928-08-14 03:00:00 TS 28.2499 -83.7002 main 85 85 P_____________ AL021928 28.2499 -83.7002 TS 50 0 10 330
1928221N12300 1928 43 NA GM NOT_NAMED 1928-08-14 06:00:00 TS 28.7000 -84.0000 50 hurdat_atl main 103 87 O_____________ hurdat_atl AL021928 28.7000 -84.0000 TS 50 0 11 328
1928221N12300 1928 43 NA GM NOT_NAMED 1928-08-14 09:00:00 TS 29.1501 -84.3348 main 77 24 P_____________ AL021928 29.1501 -84.3348 TS 47 0 10 330
1928221N12300 1928 43 NA GM NOT_NAMED 1928-08-14 12:00:00 TS 29.6000 -84.6000 45 hurdat_atl main 24 0 O_____________ hurdat_atl AL021928 29.6000 -84.6000 TS 45 0 10 337
1928221N12300 1928 43 NA NA NOT_NAMED 1928-08-14 14:00:00 TS 29.9000 -84.7000 45 hurdat_atl main 0 0 O_____________ hurdat_atl AL021928 29.9000 -84.7000 L TS 45 0 10 343
1928221N12300 1928 43 NA NA NOT_NAMED 1928-08-14 15:00:00 TS 30.0518 -84.7658 main 0 0 P_____________ AL021928 30.0518 -84.7658 TS 43 0 10 337
1928221N12300 1928 43 NA NA NOT_NAMED 1928-08-14 18:00:00 TS 30.5000 -85.0000 40 hurdat_atl main 0 0 O_____________ hurdat_atl AL021928 30.5000 -85.0000 TS 40 0 9 336
1928221N12300 1928 43 NA NA NOT_NAMED 1928-08-14 21:00:00 TS 30.9091 -85.2188 main 0 0 P_____________ AL021928 30.9091 -85.2188 TS 37 0 9 337
1928221N12300 1928 43 NA NA NOT_NAMED 1928-08-15 00:00:00 TS 31.3000 -85.4000 35 hurdat_atl main 0 0 O_____________ hurdat_atl AL021928 31.3000 -85.4000 TS 35 0 8 340
1928221N12300 1928 43 NA NA NOT_NAMED 1928-08-15 03:00:00 TS 31.6925 -85.5449 main 0 0 P_____________ AL021928 31.6925 -85.5449 TS 35 0 8 348
1928221N12300 1928 43 NA NA NOT_NAMED 1928-08-15 06:00:00 TS 32.1000 -85.6000 35 hurdat_atl main 0 0 O_____________ hurdat_atl AL021928 32.1000 -85.6000 TS 35 0 9 358
1928221N12300 1928 43 NA NA NOT_NAMED 1928-08-15 09:00:00 TS 32.5425 -85.5451 main 0 0 P_____________ AL021928 32.5425 -85.5451 TS 32 -1 9 10
1928221N12300 1928 43 NA NA NOT_NAMED 1928-08-15 12:00:00 TS 33.0000 -85.4000 30 hurdat_atl main 0 0 O_____________ hurdat_atl AL021928 33.0000 -85.4000 TD 30 -1 10 17
1928221N12300 1928 43 NA NA NOT_NAMED 1928-08-15 15:00:00 TS 33.4575 -85.2225 main 0 0 P_____________ AL021928 33.4575 -85.2225 TD 30 -1 10 20
1928221N12300 1928 43 NA NA NOT_NAMED 1928-08-15 18:00:00 TS 33.9000 -85.0000 30 hurdat_atl main 0 0 O_____________ hurdat_atl AL021928 33.9000 -85.0000 TD 30 -1 9 24
1928221N12300 1928 43 NA NA NOT_NAMED 1928-08-15 21:00:00 TS 34.3074 -84.7647 main 0 0 P_____________ AL021928 34.3074 -84.7647 TD 30 -1 9 27
1928221N12300 1928 43 NA NA NOT_NAMED 1928-08-16 00:00:00 TS 34.7000 -84.5000 30 hurdat_atl main 0 0 O_____________ hurdat_atl AL021928 34.7000 -84.5000 TD 30 -1 9 30
1928221N12300 1928 43 NA NA NOT_NAMED 1928-08-16 03:00:00 TS 35.0850 -84.2071 main 0 0 P_____________ AL021928 35.0850 -84.2071 TD 30 -1 9 32
1928221N12300 1928 43 NA NA NOT_NAMED 1928-08-16 06:00:00 TS 35.5000 -83.9000 30 hurdat_atl main 0 0 O_____________ hurdat_atl AL021928 35.5000 -83.9000 TD 30 -1 10 28
1928221N12300 1928 43 NA NA NOT_NAMED 1928-08-16 09:00:00 TS 35.9848 -83.6145 main 0 0 P_____________ AL021928 35.9848 -83.6145 TD 27 -1 11 26
1928221N12300 1928 43 NA NA NOT_NAMED 1928-08-16 12:00:00 TS 36.5000 -83.3000 25 hurdat_atl main 0 0 O_____________ hurdat_atl AL021928 36.5000 -83.3000 TD 25 -1 12 29
1928221N12300 1928 43 NA NA NOT_NAMED 1928-08-16 15:00:00 TS 37.0074 -82.9222 main 0 0 P_____________ AL021928 37.0074 -82.9222 TD 25 -1 12 33
1928221N12300 1928 43 NA NA NOT_NAMED 1928-08-16 18:00:00 TS 37.5000 -82.5000 25 hurdat_atl main 0 0 O_____________ hurdat_atl AL021928 37.5000 -82.5000 TD 25 -1 12 35
1928221N12300 1928 43 NA NA NOT_NAMED 1928-08-16 21:00:00 TS 37.9647 -82.0718 main 0 0 P_____________ AL021928 37.9647 -82.0718 TD 25 -1 11 38
1928221N12300 1928 43 NA NA NOT_NAMED 1928-08-17 00:00:00 TS 38.4000 -81.6000 25 hurdat_atl main 0 0 O_____________ hurdat_atl AL021928 38.4000 -81.6000 TD 25 -1 12 43
1928221N12300 1928 43 NA NA NOT_NAMED 1928-08-17 03:00:00 TS 38.8081 -81.0688 main 0 0 P_____________ AL021928 38.8081 -81.0688 TD 22 -1 12 47
1928221N12300 1928 43 NA NA NOT_NAMED 1928-08-17 06:00:00 TS 39.2000 -80.5000 20 hurdat_atl main 0 O_____________ hurdat_atl AL021928 39.2000 -80.5000 TD 20 -1 12 48

IBTrACS Databaseについて

本データベースは、米国NOAAが公開する1842年以降の世界の熱帯低気圧のベストトラックデータアーカイブInternational Best Track Archive for Climate Stewardship (IBTrACS)を、ウェブで閲覧しやすい形式に変換したものです。

最終更新日:2021-12-08